sensor_id;sensor_type;location;lat;lon;timestamp;temperature;humidity
47779;DHT22;33538;48.432;11.350;2024-03-06T00:02:21;7.40;99.90
47779;DHT22;33538;48.432;11.350;2024-03-06T00:04:48;7.40;99.90
47779;DHT22;33538;48.432;11.350;2024-03-06T00:07:15;7.40;99.90
47779;DHT22;33538;48.432;11.350;2024-03-06T00:09:42;7.40;99.90
47779;DHT22;33538;48.432;11.350;2024-03-06T00:12:09;7.40;99.90
47779;DHT22;33538;48.432;11.350;2024-03-06T00:14:36;7.40;99.90
47779;DHT22;33538;48.432;11.350;2024-03-06T00:17:04;7.40;99.90
47779;DHT22;33538;48.432;11.350;2024-03-06T00:19:31;7.40;99.90
47779;DHT22;33538;48.432;11.350;2024-03-06T00:21:59;7.40;99.90
47779;DHT22;33538;48.432;11.350;2024-03-06T00:24:25;7.40;99.90
47779;DHT22;33538;48.432;11.350;2024-03-06T00:26:52;7.40;99.90
47779;DHT22;33538;48.432;11.350;2024-03-06T00:29:19;7.40;99.90
47779;DHT22;33538;48.432;11.350;2024-03-06T00:31:46;7.40;99.90
47779;DHT22;33538;48.432;11.350;2024-03-06T00:34:14;7.40;99.90
47779;DHT22;33538;48.432;11.350;2024-03-06T00:36:42;7.40;99.90
47779;DHT22;33538;48.432;11.350;2024-03-06T00:39:09;7.30;99.90
47779;DHT22;33538;48.432;11.350;2024-03-06T00:41:36;7.40;99.90
47779;DHT22;33538;48.432;11.350;2024-03-06T00:44:03;7.40;99.90
47779;DHT22;33538;48.432;11.350;2024-03-06T00:46:30;7.40;99.90
47779;DHT22;33538;48.432;11.350;2024-03-06T00:48:57;7.40;99.90
47779;DHT22;33538;48.432;11.350;2024-03-06T00:51:25;7.40;99.90
47779;DHT22;33538;48.432;11.350;2024-03-06T00:54:07;7.40;99.90
47779;DHT22;33538;48.432;11.350;2024-03-06T00:56:37;7.30;99.90
47779;DHT22;33538;48.432;11.350;2024-03-06T00:59:04;7.30;99.90
47779;DHT22;33538;48.432;11.350;2024-03-06T01:01:31;7.40;99.90
47779;DHT22;33538;48.432;11.350;2024-03-06T01:03:58;7.40;99.90
47779;DHT22;33538;48.432;11.350;2024-03-06T01:06:26;7.30;99.90
47779;DHT22;33538;48.432;11.350;2024-03-06T01:08:53;7.30;99.90
47779;DHT22;33538;48.432;11.350;2024-03-06T01:11:20;7.30;99.90
47779;DHT22;33538;48.432;11.350;2024-03-06T01:13:46;7.30;99.90
47779;DHT22;33538;48.432;11.350;2024-03-06T01:16:13;7.30;99.90
47779;DHT22;33538;48.432;11.350;2024-03-06T01:18:40;7.30;99.90
47779;DHT22;33538;48.432;11.350;2024-03-06T01:21:07;7.20;99.90
47779;DHT22;33538;48.432;11.350;2024-03-06T01:23:35;7.30;99.90
47779;DHT22;33538;48.432;11.350;2024-03-06T01:26:02;7.30;99.90
47779;DHT22;33538;48.432;11.350;2024-03-06T01:28:29;7.30;99.90
47779;DHT22;33538;48.432;11.350;2024-03-06T01:30:55;7.20;99.90
47779;DHT22;33538;48.432;11.350;2024-03-06T01:33:22;7.20;99.90
47779;DHT22;33538;48.432;11.350;2024-03-06T01:35:49;7.30;99.90
47779;DHT22;33538;48.432;11.350;2024-03-06T01:38:16;7.20;99.90
47779;DHT22;33538;48.432;11.350;2024-03-06T01:40:44;7.20;99.90
47779;DHT22;33538;48.432;11.350;2024-03-06T01:43:21;7.20;99.90
47779;DHT22;33538;48.432;11.350;2024-03-06T01:45:48;7.20;99.90
47779;DHT22;33538;48.432;11.350;2024-03-06T01:48:16;7.20;99.90
47779;DHT22;33538;48.432;11.350;2024-03-06T01:50:44;7.20;99.90
47779;DHT22;33538;48.432;11.350;2024-03-06T01:53:12;7.20;99.90
47779;DHT22;33538;48.432;11.350;2024-03-06T01:55:39;7.20;99.90
47779;DHT22;33538;48.432;11.350;2024-03-06T01:58:08;7.20;99.90
47779;DHT22;33538;48.432;11.350;2024-03-06T02:00:36;7.20;99.90
47779;DHT22;33538;48.432;11.350;2024-03-06T02:03:03;7.20;99.90
47779;DHT22;33538;48.432;11.350;2024-03-06T02:05:30;7.20;99.90
47779;DHT22;33538;48.432;11.350;2024-03-06T02:07:58;7.20;99.90
47779;DHT22;33538;48.432;11.350;2024-03-06T02:10:25;7.20;99.90
47779;DHT22;33538;48.432;11.350;2024-03-06T02:12:52;7.10;99.90
47779;DHT22;33538;48.432;11.350;2024-03-06T02:15:21;7.10;99.90
47779;DHT22;33538;48.432;11.350;2024-03-06T02:17:48;7.10;99.90
47779;DHT22;33538;48.432;11.350;2024-03-06T02:20:15;7.10;99.90
47779;DHT22;33538;48.432;11.350;2024-03-06T02:22:43;7.10;99.90
47779;DHT22;33538;48.432;11.350;2024-03-06T02:25:11;7.10;99.90
47779;DHT22;33538;48.432;11.350;2024-03-06T02:27:38;7.10;99.90
47779;DHT22;33538;48.432;11.350;2024-03-06T02:30:06;7.10;99.90
47779;DHT22;33538;48.432;11.350;2024-03-06T02:32:33;7.10;99.90
47779;DHT22;33538;48.432;11.350;2024-03-06T02:35:00;7.10;99.90
47779;DHT22;33538;48.432;11.350;2024-03-06T02:37:27;7.10;99.90
47779;DHT22;33538;48.432;11.350;2024-03-06T02:39:55;7.00;99.90
47779;DHT22;33538;48.432;11.350;2024-03-06T02:42:22;7.10;99.90
47779;DHT22;33538;48.432;11.350;2024-03-06T02:44:49;7.10;99.90
47779;DHT22;33538;48.432;11.350;2024-03-06T02:47:16;7.10;99.90
47779;DHT22;33538;48.432;11.350;2024-03-06T02:49:43;7.10;99.90
47779;DHT22;33538;48.432;11.350;2024-03-06T02:52:09;7.10;99.90
47779;DHT22;33538;48.432;11.350;2024-03-06T02:54:36;7.10;99.90
47779;DHT22;33538;48.432;11.350;2024-03-06T02:57:04;7.10;99.90
47779;DHT22;33538;48.432;11.350;2024-03-06T02:59:31;7.10;99.90
47779;DHT22;33538;48.432;11.350;2024-03-06T03:01:58;7.10;99.90
47779;DHT22;33538;48.432;11.350;2024-03-06T03:04:25;7.10;99.90
47779;DHT22;33538;48.432;11.350;2024-03-06T03:06:52;7.10;99.90
47779;DHT22;33538;48.432;11.350;2024-03-06T03:09:18;7.10;99.90
47779;DHT22;33538;48.432;11.350;2024-03-06T03:11:45;7.10;99.90
47779;DHT22;33538;48.432;11.350;2024-03-06T03:14:13;7.10;99.90
47779;DHT22;33538;48.432;11.350;2024-03-06T03:16:40;7.10;99.90
47779;DHT22;33538;48.432;11.350;2024-03-06T03:19:07;7.10;99.90
47779;DHT22;33538;48.432;11.350;2024-03-06T03:21:34;7.10;99.90
47779;DHT22;33538;48.432;11.350;2024-03-06T03:24:01;7.10;99.90
47779;DHT22;33538;48.432;11.350;2024-03-06T03:26:27;7.10;99.90
47779;DHT22;33538;48.432;11.350;2024-03-06T03:28:54;7.10;99.90
47779;DHT22;33538;48.432;11.350;2024-03-06T03:31:22;7.10;99.90
47779;DHT22;33538;48.432;11.350;2024-03-06T03:33:49;7.10;99.90
47779;DHT22;33538;48.432;11.350;2024-03-06T03:36:16;7.10;99.90
47779;DHT22;33538;48.432;11.350;2024-03-06T03:38:43;7.10;99.90
47779;DHT22;33538;48.432;11.350;2024-03-06T03:41:10;7.10;99.90
47779;DHT22;33538;48.432;11.350;2024-03-06T03:43:38;7.10;99.90
47779;DHT22;33538;48.432;11.350;2024-03-06T03:46:05;7.10;99.90
47779;DHT22;33538;48.432;11.350;2024-03-06T03:48:33;7.10;99.90
47779;DHT22;33538;48.432;11.350;2024-03-06T03:51:00;7.00;99.90
47779;DHT22;33538;48.432;11.350;2024-03-06T03:53:27;7.10;99.90
47779;DHT22;33538;48.432;11.350;2024-03-06T03:55:53;7.00;99.90
47779;DHT22;33538;48.432;11.350;2024-03-06T03:58:20;7.10;99.90
47779;DHT22;33538;48.432;11.350;2024-03-06T04:00:47;7.10;99.90
47779;DHT22;33538;48.432;11.350;2024-03-06T04:03:14;7.00;99.90
47779;DHT22;33538;48.432;11.350;2024-03-06T04:05:42;7.10;99.90
47779;DHT22;33538;48.432;11.350;2024-03-06T04:08:09;7.10;99.90
47779;DHT22;33538;48.432;11.350;2024-03-06T04:10:36;7.00;99.90
47779;DHT22;33538;48.432;11.350;2024-03-06T04:13:06;7.00;99.90
47779;DHT22;33538;48.432;11.350;2024-03-06T04:15:33;7.00;99.90
47779;DHT22;33538;48.432;11.350;2024-03-06T04:18:00;7.00;99.90
47779;DHT22;33538;48.432;11.350;2024-03-06T04:20:27;7.00;99.90
47779;DHT22;33538;48.432;11.350;2024-03-06T04:22:55;7.00;99.90
47779;DHT22;33538;48.432;11.350;2024-03-06T04:25:23;7.00;99.90
47779;DHT22;33538;48.432;11.350;2024-03-06T04:27:49;7.00;99.90
47779;DHT22;33538;48.432;11.350;2024-03-06T04:30:16;6.90;99.90
47779;DHT22;33538;48.432;11.350;2024-03-06T04:32:43;7.00;99.90
47779;DHT22;33538;48.432;11.350;2024-03-06T04:35:11;7.00;99.90
47779;DHT22;33538;48.432;11.350;2024-03-06T04:37:39;7.00;99.90
47779;DHT22;33538;48.432;11.350;2024-03-06T04:40:08;6.90;99.90
47779;DHT22;33538;48.432;11.350;2024-03-06T04:42:35;6.90;99.90
47779;DHT22;33538;48.432;11.350;2024-03-06T04:45:02;6.90;99.90
47779;DHT22;33538;48.432;11.350;2024-03-06T04:47:29;6.90;99.90
47779;DHT22;33538;48.432;11.350;2024-03-06T04:49:56;6.90;99.90
47779;DHT22;33538;48.432;11.350;2024-03-06T04:52:23;6.90;99.90
47779;DHT22;33538;48.432;11.350;2024-03-06T04:54:50;7.00;99.90
47779;DHT22;33538;48.432;11.350;2024-03-06T04:57:18;6.90;99.90
47779;DHT22;33538;48.432;11.350;2024-03-06T04:59:45;6.90;99.90
47779;DHT22;33538;48.432;11.350;2024-03-06T05:02:12;7.00;99.90
47779;DHT22;33538;48.432;11.350;2024-03-06T05:04:39;7.00;99.90
47779;DHT22;33538;48.432;11.350;2024-03-06T05:07:23;7.00;99.90
47779;DHT22;33538;48.432;11.350;2024-03-06T05:10:07;7.00;99.90
47779;DHT22;33538;48.432;11.350;2024-03-06T05:12:53;7.00;99.90
47779;DHT22;33538;48.432;11.350;2024-03-06T05:15:37;7.00;99.90
47779;DHT22;33538;48.432;11.350;2024-03-06T05:18:21;7.00;99.90
47779;DHT22;33538;48.432;11.350;2024-03-06T05:21:05;7.00;99.90
47779;DHT22;33538;48.432;11.350;2024-03-06T05:23:49;7.00;99.90
47779;DHT22;33538;48.432;11.350;2024-03-06T05:26:34;7.00;99.90
47779;DHT22;33538;48.432;11.350;2024-03-06T05:29:19;7.00;99.90
47779;DHT22;33538;48.432;11.350;2024-03-06T05:32:04;7.00;99.90
47779;DHT22;33538;48.432;11.350;2024-03-06T05:34:48;7.00;99.90
47779;DHT22;33538;48.432;11.350;2024-03-06T05:37:32;6.90;99.90
47779;DHT22;33538;48.432;11.350;2024-03-06T05:40:16;7.00;99.90
47779;DHT22;33538;48.432;11.350;2024-03-06T05:43:00;7.00;99.90
47779;DHT22;33538;48.432;11.350;2024-03-06T05:45:46;6.90;99.90
47779;DHT22;33538;48.432;11.350;2024-03-06T05:48:30;7.00;99.90
47779;DHT22;33538;48.432;11.350;2024-03-06T05:51:15;7.00;99.90
47779;DHT22;33538;48.432;11.350;2024-03-06T05:53:59;7.00;99.90
47779;DHT22;33538;48.432;11.350;2024-03-06T05:56:43;7.00;99.90
47779;DHT22;33538;48.432;11.350;2024-03-06T05:59:27;7.00;99.90
47779;DHT22;33538;48.432;11.350;2024-03-06T06:01:55;7.00;99.90
47779;DHT22;33538;48.432;11.350;2024-03-06T06:04:22;7.00;99.90
47779;DHT22;33538;48.432;11.350;2024-03-06T06:06:49;7.00;99.90
47779;DHT22;33538;48.432;11.350;2024-03-06T06:09:16;7.00;99.90
47779;DHT22;33538;48.432;11.350;2024-03-06T06:11:43;7.00;99.90
47779;DHT22;33538;48.432;11.350;2024-03-06T06:14:10;7.00;99.90
47779;DHT22;33538;48.432;11.350;2024-03-06T06:16:37;7.00;99.90
47779;DHT22;33538;48.432;11.350;2024-03-06T06:19:06;7.00;99.90
47779;DHT22;33538;48.432;11.350;2024-03-06T06:21:33;7.00;99.90
47779;DHT22;33538;48.432;11.350;2024-03-06T06:24:00;7.00;99.90
47779;DHT22;33538;48.432;11.350;2024-03-06T06:26:27;7.00;99.90
47779;DHT22;33538;48.432;11.350;2024-03-06T06:28:53;7.00;99.90
47779;DHT22;33538;48.432;11.350;2024-03-06T06:31:20;7.00;99.90
47779;DHT22;33538;48.432;11.350;2024-03-06T06:33:47;7.00;99.90
47779;DHT22;33538;48.432;11.350;2024-03-06T06:36:15;7.00;99.90
47779;DHT22;33538;48.432;11.350;2024-03-06T06:38:42;7.00;99.90
47779;DHT22;33538;48.432;11.350;2024-03-06T06:41:09;7.00;99.90
47779;DHT22;33538;48.432;11.350;2024-03-06T06:43:36;7.00;99.90
47779;DHT22;33538;48.432;11.350;2024-03-06T06:46:03;7.00;99.90
47779;DHT22;33538;48.432;11.350;2024-03-06T06:48:31;7.00;99.90
47779;DHT22;33538;48.432;11.350;2024-03-06T06:50:58;7.00;99.90
47779;DHT22;33538;48.432;11.350;2024-03-06T06:53:26;7.00;99.90
47779;DHT22;33538;48.432;11.350;2024-03-06T06:55:53;7.00;99.90
47779;DHT22;33538;48.432;11.350;2024-03-06T06:58:20;7.00;99.90
47779;DHT22;33538;48.432;11.350;2024-03-06T07:00:47;7.00;99.90
47779;DHT22;33538;48.432;11.350;2024-03-06T07:03:14;7.00;99.90
47779;DHT22;33538;48.432;11.350;2024-03-06T07:05:41;7.00;99.90
47779;DHT22;33538;48.432;11.350;2024-03-06T07:08:08;7.00;99.90
47779;DHT22;33538;48.432;11.350;2024-03-06T07:10:36;7.00;99.90
47779;DHT22;33538;48.432;11.350;2024-03-06T07:13:03;7.00;99.90
47779;DHT22;33538;48.432;11.350;2024-03-06T07:15:31;6.90;99.90
47779;DHT22;33538;48.432;11.350;2024-03-06T07:17:58;7.00;99.90
47779;DHT22;33538;48.432;11.350;2024-03-06T07:20:25;7.00;99.90
47779;DHT22;33538;48.432;11.350;2024-03-06T07:22:52;7.00;99.90
47779;DHT22;33538;48.432;11.350;2024-03-06T07:25:18;7.00;99.90
47779;DHT22;33538;48.432;11.350;2024-03-06T07:27:46;7.00;99.90
47779;DHT22;33538;48.432;11.350;2024-03-06T07:30:14;7.00;99.90
47779;DHT22;33538;48.432;11.350;2024-03-06T07:32:41;7.00;99.90
47779;DHT22;33538;48.432;11.350;2024-03-06T07:35:08;7.00;99.90
47779;DHT22;33538;48.432;11.350;2024-03-06T07:37:35;7.00;99.90
47779;DHT22;33538;48.432;11.350;2024-03-06T07:40:02;7.10;99.90
47779;DHT22;33538;48.432;11.350;2024-03-06T07:42:28;7.00;99.90
47779;DHT22;33538;48.432;11.350;2024-03-06T07:44:57;7.10;99.90
47779;DHT22;33538;48.432;11.350;2024-03-06T07:47:23;7.10;99.90
47779;DHT22;33538;48.432;11.350;2024-03-06T07:49:50;7.10;99.90
47779;DHT22;33538;48.432;11.350;2024-03-06T07:52:17;7.10;99.90
47779;DHT22;33538;48.432;11.350;2024-03-06T07:54:44;7.00;99.90
47779;DHT22;33538;48.432;11.350;2024-03-06T07:57:11;7.10;99.90
47779;DHT22;33538;48.432;11.350;2024-03-06T07:59:37;7.10;99.90
47779;DHT22;33538;48.432;11.350;2024-03-06T08:02:06;7.10;99.90
47779;DHT22;33538;48.432;11.350;2024-03-06T08:04:33;7.00;99.90
47779;DHT22;33538;48.432;11.350;2024-03-06T08:06:59;7.10;99.90
47779;DHT22;33538;48.432;11.350;2024-03-06T08:09:26;7.10;99.90
47779;DHT22;33538;48.432;11.350;2024-03-06T08:11:53;7.10;99.90
47779;DHT22;33538;48.432;11.350;2024-03-06T08:14:20;7.10;99.90
47779;DHT22;33538;48.432;11.350;2024-03-06T08:16:46;7.10;99.90
47779;DHT22;33538;48.432;11.350;2024-03-06T08:19:15;7.10;99.90
47779;DHT22;33538;48.432;11.350;2024-03-06T08:21:41;7.10;99.90
47779;DHT22;33538;48.432;11.350;2024-03-06T08:24:08;7.10;99.90
47779;DHT22;33538;48.432;11.350;2024-03-06T08:26:35;7.10;99.90
47779;DHT22;33538;48.432;11.350;2024-03-06T08:29:02;7.10;99.90
47779;DHT22;33538;48.432;11.350;2024-03-06T08:31:29;7.10;99.90
47779;DHT22;33538;48.432;11.350;2024-03-06T08:33:56;7.10;99.90
47779;DHT22;33538;48.432;11.350;2024-03-06T08:36:24;7.10;99.90
47779;DHT22;33538;48.432;11.350;2024-03-06T08:38:51;7.10;99.90
47779;DHT22;33538;48.432;11.350;2024-03-06T08:41:18;7.10;99.90
47779;DHT22;33538;48.432;11.350;2024-03-06T08:43:45;7.20;99.90
47779;DHT22;33538;48.432;11.350;2024-03-06T08:46:12;7.20;99.90
47779;DHT22;33538;48.432;11.350;2024-03-06T08:48:38;7.20;99.90
47779;DHT22;33538;48.432;11.350;2024-03-06T08:51:05;7.20;99.90
47779;DHT22;33538;48.432;11.350;2024-03-06T08:53:33;7.20;99.90
47779;DHT22;33538;48.432;11.350;2024-03-06T08:56:00;7.20;99.90
47779;DHT22;33538;48.432;11.350;2024-03-06T08:58:27;7.20;99.90
47779;DHT22;33538;48.432;11.350;2024-03-06T09:00:54;7.20;99.90
47779;DHT22;33538;48.432;11.350;2024-03-06T09:03:21;7.30;99.90
47779;DHT22;33538;48.432;11.350;2024-03-06T09:05:48;7.30;99.90
47779;DHT22;33538;48.432;11.350;2024-03-06T09:08:15;7.20;99.90
47779;DHT22;33538;48.432;11.350;2024-03-06T09:10:43;7.30;99.90
47779;DHT22;33538;48.432;11.350;2024-03-06T09:13:10;7.30;99.90
47779;DHT22;33538;48.432;11.350;2024-03-06T09:15:37;7.40;99.90
47779;DHT22;33538;48.432;11.350;2024-03-06T09:18:04;7.30;99.90
47779;DHT22;33538;48.432;11.350;2024-03-06T09:20:31;7.40;99.90
47779;DHT22;33538;48.432;11.350;2024-03-06T09:22:57;7.40;99.90
47779;DHT22;33538;48.432;11.350;2024-03-06T09:25:24;7.40;99.90
47779;DHT22;33538;48.432;11.350;2024-03-06T09:27:57;7.50;99.90
47779;DHT22;33538;48.432;11.350;2024-03-06T09:30:24;7.40;99.90
47779;DHT22;33538;48.432;11.350;2024-03-06T09:32:50;7.40;99.90
47779;DHT22;33538;48.432;11.350;2024-03-06T09:35:18;7.50;99.90
47779;DHT22;33538;48.432;11.350;2024-03-06T09:37:45;7.50;99.90
47779;DHT22;33538;48.432;11.350;2024-03-06T09:40:20;7.50;99.90
47779;DHT22;33538;48.432;11.350;2024-03-06T09:42:47;7.50;99.90
47779;DHT22;33538;48.432;11.350;2024-03-06T09:45:15;7.50;99.90
47779;DHT22;33538;48.432;11.350;2024-03-06T09:47:43;7.50;99.90
47779;DHT22;33538;48.432;11.350;2024-03-06T09:50:10;7.60;99.90
47779;DHT22;33538;48.432;11.350;2024-03-06T09:52:40;7.60;99.90
47779;DHT22;33538;48.432;11.350;2024-03-06T09:55:08;7.60;99.90
47779;DHT22;33538;48.432;11.350;2024-03-06T09:57:35;7.60;99.90
47779;DHT22;33538;48.432;11.350;2024-03-06T10:00:03;7.60;99.90
47779;DHT22;33538;48.432;11.350;2024-03-06T10:02:38;7.60;99.90
47779;DHT22;33538;48.432;11.350;2024-03-06T10:05:06;7.60;99.90
47779;DHT22;33538;48.432;11.350;2024-03-06T10:07:46;7.60;99.90
47779;DHT22;33538;48.432;11.350;2024-03-06T10:10:13;7.60;99.90
47779;DHT22;33538;48.432;11.350;2024-03-06T10:12:41;7.70;99.90
47779;DHT22;33538;48.432;11.350;2024-03-06T10:15:08;7.70;99.90
47779;DHT22;33538;48.432;11.350;2024-03-06T10:17:36;7.70;99.90
47779;DHT22;33538;48.432;11.350;2024-03-06T10:20:17;7.70;99.90
47779;DHT22;33538;48.432;11.350;2024-03-06T10:22:44;7.70;99.90
47779;DHT22;33538;48.432;11.350;2024-03-06T10:25:11;7.70;99.90
47779;DHT22;33538;48.432;11.350;2024-03-06T10:27:37;7.70;99.90
47779;DHT22;33538;48.432;11.350;2024-03-06T10:30:05;7.70;99.90
47779;DHT22;33538;48.432;11.350;2024-03-06T10:32:32;7.70;99.90
47779;DHT22;33538;48.432;11.350;2024-03-06T10:35:01;7.70;99.90
47779;DHT22;33538;48.432;11.350;2024-03-06T10:37:29;7.70;99.90
47779;DHT22;33538;48.432;11.350;2024-03-06T10:39:58;7.70;99.90
47779;DHT22;33538;48.432;11.350;2024-03-06T10:42:28;7.70;99.90
47779;DHT22;33538;48.432;11.350;2024-03-06T10:44:59;7.70;99.90
47779;DHT22;33538;48.432;11.350;2024-03-06T10:47:27;7.70;99.90
47779;DHT22;33538;48.432;11.350;2024-03-06T10:49:55;7.70;99.90
47779;DHT22;33538;48.432;11.350;2024-03-06T10:52:28;7.80;99.90
47779;DHT22;33538;48.432;11.350;2024-03-06T10:54:58;7.70;99.90
47779;DHT22;33538;48.432;11.350;2024-03-06T10:57:26;7.70;99.90
47779;DHT22;33538;48.432;11.350;2024-03-06T10:59:53;7.80;99.90
47779;DHT22;33538;48.432;11.350;2024-03-06T11:02:22;7.70;99.90
47779;DHT22;33538;48.432;11.350;2024-03-06T11:04:50;7.70;99.90
47779;DHT22;33538;48.432;11.350;2024-03-06T11:07:18;7.70;99.90
47779;DHT22;33538;48.432;11.350;2024-03-06T11:09:46;7.70;99.90
47779;DHT22;33538;48.432;11.350;2024-03-06T11:12:13;7.70;99.90
47779;DHT22;33538;48.432;11.350;2024-03-06T11:14:40;7.70;99.90
47779;DHT22;33538;48.432;11.350;2024-03-06T11:17:09;7.70;99.90
47779;DHT22;33538;48.432;11.350;2024-03-06T11:20:07;7.70;99.90
47779;DHT22;33538;48.432;11.350;2024-03-06T11:23:03;7.70;99.90
47779;DHT22;33538;48.432;11.350;2024-03-06T11:26:06;7.70;99.90
47779;DHT22;33538;48.432;11.350;2024-03-06T11:28:34;7.80;99.90
47779;DHT22;33538;48.432;11.350;2024-03-06T11:31:02;7.70;99.90
47779;DHT22;33538;48.432;11.350;2024-03-06T11:33:36;7.80;99.90
47779;DHT22;33538;48.432;11.350;2024-03-06T11:36:14;7.80;99.90
47779;DHT22;33538;48.432;11.350;2024-03-06T11:38:41;7.80;99.90
47779;DHT22;33538;48.432;11.350;2024-03-06T11:41:09;7.80;99.90
47779;DHT22;33538;48.432;11.350;2024-03-06T11:43:42;7.80;99.90
47779;DHT22;33538;48.432;11.350;2024-03-06T11:46:09;7.80;99.90
47779;DHT22;33538;48.432;11.350;2024-03-06T11:48:36;7.80;99.90
47779;DHT22;33538;48.432;11.350;2024-03-06T11:51:03;7.80;99.90
47779;DHT22;33538;48.432;11.350;2024-03-06T11:53:30;7.80;99.90
47779;DHT22;33538;48.432;11.350;2024-03-06T11:55:59;7.80;99.90
47779;DHT22;33538;48.432;11.350;2024-03-06T11:58:27;7.80;99.90
47779;DHT22;33538;48.432;11.350;2024-03-06T12:00:54;7.80;99.90
47779;DHT22;33538;48.432;11.350;2024-03-06T12:03:22;7.80;99.90
47779;DHT22;33538;48.432;11.350;2024-03-06T12:05:50;7.80;99.90
47779;DHT22;33538;48.432;11.350;2024-03-06T12:08:17;7.90;99.90
47779;DHT22;33538;48.432;11.350;2024-03-06T12:10:46;7.90;99.90
47779;DHT22;33538;48.432;11.350;2024-03-06T12:13:13;7.90;99.90
47779;DHT22;33538;48.432;11.350;2024-03-06T12:15:44;7.80;99.90
47779;DHT22;33538;48.432;11.350;2024-03-06T12:18:11;7.80;99.90
47779;DHT22;33538;48.432;11.350;2024-03-06T12:20:41;7.80;99.90
47779;DHT22;33538;48.432;11.350;2024-03-06T12:23:08;7.80;99.90
47779;DHT22;33538;48.432;11.350;2024-03-06T12:25:35;7.80;99.90
47779;DHT22;33538;48.432;11.350;2024-03-06T12:28:07;7.90;99.90
47779;DHT22;33538;48.432;11.350;2024-03-06T12:30:40;7.90;99.90
47779;DHT22;33538;48.432;11.350;2024-03-06T12:33:09;7.90;99.90
47779;DHT22;33538;48.432;11.350;2024-03-06T12:35:37;7.90;99.90
47779;DHT22;33538;48.432;11.350;2024-03-06T12:38:12;7.80;99.90
47779;DHT22;33538;48.432;11.350;2024-03-06T12:40:39;7.80;99.90
47779;DHT22;33538;48.432;11.350;2024-03-06T12:43:05;7.80;99.90
47779;DHT22;33538;48.432;11.350;2024-03-06T12:45:33;7.80;99.90
47779;DHT22;33538;48.432;11.350;2024-03-06T12:48:00;7.80;99.90
47779;DHT22;33538;48.432;11.350;2024-03-06T12:50:28;7.90;99.90
47779;DHT22;33538;48.432;11.350;2024-03-06T12:52:56;7.80;99.90
47779;DHT22;33538;48.432;11.350;2024-03-06T12:55:22;7.80;99.90
47779;DHT22;33538;48.432;11.350;2024-03-06T12:57:49;7.80;99.90
47779;DHT22;33538;48.432;11.350;2024-03-06T13:00:16;7.80;99.90
47779;DHT22;33538;48.432;11.350;2024-03-06T13:02:43;7.80;99.90
47779;DHT22;33538;48.432;11.350;2024-03-06T13:05:11;7.80;99.90
47779;DHT22;33538;48.432;11.350;2024-03-06T13:07:40;7.80;99.90
47779;DHT22;33538;48.432;11.350;2024-03-06T13:10:07;7.80;99.90
47779;DHT22;33538;48.432;11.350;2024-03-06T13:12:34;7.80;99.90
47779;DHT22;33538;48.432;11.350;2024-03-06T13:15:01;7.80;99.90
47779;DHT22;33538;48.432;11.350;2024-03-06T13:17:27;7.80;99.90
47779;DHT22;33538;48.432;11.350;2024-03-06T13:19:54;7.80;99.90
47779;DHT22;33538;48.432;11.350;2024-03-06T13:22:21;7.80;99.90
47779;DHT22;33538;48.432;11.350;2024-03-06T13:24:50;7.80;99.90
47779;DHT22;33538;48.432;11.350;2024-03-06T13:27:17;7.70;99.90
47779;DHT22;33538;48.432;11.350;2024-03-06T13:29:43;7.70;99.90
47779;DHT22;33538;48.432;11.350;2024-03-06T13:32:10;7.70;99.90
47779;DHT22;33538;48.432;11.350;2024-03-06T13:34:37;7.70;99.90
47779;DHT22;33538;48.432;11.350;2024-03-06T13:37:04;7.70;99.90
47779;DHT22;33538;48.432;11.350;2024-03-06T13:39:31;7.70;99.90
47779;DHT22;33538;48.432;11.350;2024-03-06T13:41:59;7.70;99.90
47779;DHT22;33538;48.432;11.350;2024-03-06T13:44:26;7.70;99.90
47779;DHT22;33538;48.432;11.350;2024-03-06T13:46:53;7.60;99.90
47779;DHT22;33538;48.432;11.350;2024-03-06T13:49:35;7.70;99.90
47779;DHT22;33538;48.432;11.350;2024-03-06T13:52:03;7.60;99.90
47779;DHT22;33538;48.432;11.350;2024-03-06T13:54:31;7.60;99.90
47779;DHT22;33538;48.432;11.350;2024-03-06T13:56:59;7.60;99.90
47779;DHT22;33538;48.432;11.350;2024-03-06T13:59:26;7.60;99.90
47779;DHT22;33538;48.432;11.350;2024-03-06T14:01:52;7.60;99.90
47779;DHT22;33538;48.432;11.350;2024-03-06T14:04:19;7.60;99.90
47779;DHT22;33538;48.432;11.350;2024-03-06T14:06:46;7.60;99.90
47779;DHT22;33538;48.432;11.350;2024-03-06T14:09:13;7.60;99.90
47779;DHT22;33538;48.432;11.350;2024-03-06T14:11:40;7.60;99.90
47779;DHT22;33538;48.432;11.350;2024-03-06T14:14:08;7.60;99.90
47779;DHT22;33538;48.432;11.350;2024-03-06T14:16:35;7.60;99.90
47779;DHT22;33538;48.432;11.350;2024-03-06T14:19:02;7.60;99.90
47779;DHT22;33538;48.432;11.350;2024-03-06T14:21:29;7.60;99.90
47779;DHT22;33538;48.432;11.350;2024-03-06T14:23:55;7.60;99.90
47779;DHT22;33538;48.432;11.350;2024-03-06T14:26:22;7.60;99.90
47779;DHT22;33538;48.432;11.350;2024-03-06T14:28:49;7.60;99.90
47779;DHT22;33538;48.432;11.350;2024-03-06T14:31:17;7.60;99.90
47779;DHT22;33538;48.432;11.350;2024-03-06T14:33:44;7.60;99.90
47779;DHT22;33538;48.432;11.350;2024-03-06T14:36:11;7.60;99.90
47779;DHT22;33538;48.432;11.350;2024-03-06T14:38:38;7.60;99.90
47779;DHT22;33538;48.432;11.350;2024-03-06T14:41:05;7.60;99.90
47779;DHT22;33538;48.432;11.350;2024-03-06T14:43:32;7.60;99.90
47779;DHT22;33538;48.432;11.350;2024-03-06T14:45:58;7.50;99.90
47779;DHT22;33538;48.432;11.350;2024-03-06T14:48:27;7.50;99.90
47779;DHT22;33538;48.432;11.350;2024-03-06T14:50:54;7.60;99.90
47779;DHT22;33538;48.432;11.350;2024-03-06T14:53:21;7.50;99.90
47779;DHT22;33538;48.432;11.350;2024-03-06T14:55:48;7.50;99.90
47779;DHT22;33538;48.432;11.350;2024-03-06T14:58:15;7.60;99.90
47779;DHT22;33538;48.432;11.350;2024-03-06T15:00:42;7.60;99.90
47779;DHT22;33538;48.432;11.350;2024-03-06T15:03:09;7.60;99.90
47779;DHT22;33538;48.432;11.350;2024-03-06T15:05:37;7.60;99.90
47779;DHT22;33538;48.432;11.350;2024-03-06T15:08:04;7.60;99.90
47779;DHT22;33538;48.432;11.350;2024-03-06T15:10:31;7.60;99.90
47779;DHT22;33538;48.432;11.350;2024-03-06T15:12:58;7.60;99.90
47779;DHT22;33538;48.432;11.350;2024-03-06T15:15:25;7.60;99.90
47779;DHT22;33538;48.432;11.350;2024-03-06T15:17:52;7.60;99.90
47779;DHT22;33538;48.432;11.350;2024-03-06T15:20:19;7.60;99.90
47779;DHT22;33538;48.432;11.350;2024-03-06T15:22:47;7.60;99.90
47779;DHT22;33538;48.432;11.350;2024-03-06T15:25:14;7.60;99.90
47779;DHT22;33538;48.432;11.350;2024-03-06T15:27:41;7.60;99.90
47779;DHT22;33538;48.432;11.350;2024-03-06T15:30:09;7.60;99.90
47779;DHT22;33538;48.432;11.350;2024-03-06T15:32:36;7.60;99.90
47779;DHT22;33538;48.432;11.350;2024-03-06T15:35:04;7.60;99.90
47779;DHT22;33538;48.432;11.350;2024-03-06T15:37:31;7.60;99.90
47779;DHT22;33538;48.432;11.350;2024-03-06T15:39:59;7.60;99.90